sensor_id;sensor_type;location;lat;lon;timestamp;pressure;altitude;pressure_sealevel;temperature
74539;BMP180;66042;51.090;-115.340;2023-07-31T00:01:45;86560.40;;;51.30
74539;BMP180;66042;51.090;-115.340;2023-07-31T00:04:12;86577.20;;;50.46
74539;BMP180;66042;51.090;-115.340;2023-07-31T00:06:38;86562.20;;;49.86
74539;BMP180;66042;51.090;-115.340;2023-07-31T00:09:05;86565.20;;;49.90
74539;BMP180;66042;51.090;-115.340;2023-07-31T00:11:33;86580.80;;;50.04
74539;BMP180;66042;51.090;-115.340;2023-07-31T00:14:00;86576.40;;;48.08
74539;BMP180;66042;51.090;-115.340;2023-07-31T00:16:27;86585.40;;;45.94
74539;BMP180;66042;51.090;-115.340;2023-07-31T00:18:54;86590.20;;;44.22
74539;BMP180;66042;51.090;-115.340;2023-07-31T00:21:22;86594.60;;;42.68
74539;BMP180;66042;51.090;-115.340;2023-07-31T00:23:48;86619.40;;;41.30
74539;BMP180;66042;51.090;-115.340;2023-07-31T00:26:16;86624.60;;;40.18
74539;BMP180;66042;51.090;-115.340;2023-07-31T00:28:46;86620.60;;;39.06
74539;BMP180;66042;51.090;-115.340;2023-07-31T00:31:14;86621.20;;;37.88
74539;BMP180;66042;51.090;-115.340;2023-07-31T00:33:41;86636.80;;;36.68
74539;BMP180;66042;51.090;-115.340;2023-07-31T00:36:07;86658.00;;;35.54
74539;BMP180;66042;51.090;-115.340;2023-07-31T00:38:34;86678.20;;;34.54
74539;BMP180;66042;51.090;-115.340;2023-07-31T00:41:02;86706.20;;;33.46
74539;BMP180;66042;51.090;-115.340;2023-07-31T00:43:29;86738.20;;;32.50
74539;BMP180;66042;51.090;-115.340;2023-07-31T00:45:56;86780.20;;;31.68
74539;BMP180;66042;51.090;-115.340;2023-07-31T00:48:23;86804.80;;;31.06
74539;BMP180;66042;51.090;-115.340;2023-07-31T00:50:51;86804.40;;;30.34
74539;BMP180;66042;51.090;-115.340;2023-07-31T00:53:17;86786.80;;;29.80
74539;BMP180;66042;51.090;-115.340;2023-07-31T00:55:44;86778.40;;;29.54
74539;BMP180;66042;51.090;-115.340;2023-07-31T00:58:12;86807.40;;;28.92
74539;BMP180;66042;51.090;-115.340;2023-07-31T01:00:38;86818.60;;;28.42
74539;BMP180;66042;51.090;-115.340;2023-07-31T01:03:05;86822.00;;;27.90
74539;BMP180;66042;51.090;-115.340;2023-07-31T01:08:36;86820.40;;;27.10
74539;BMP180;66042;51.090;-115.340;2023-07-31T01:11:29;86830.00;;;26.80
74539;BMP180;66042;51.090;-115.340;2023-07-31T01:13:58;86838.80;;;26.70
74539;BMP180;66042;51.090;-115.340;2023-07-31T01:16:26;86850.20;;;26.70
74539;BMP180;66042;51.090;-115.340;2023-07-31T01:18:53;86850.60;;;26.40
74539;BMP180;66042;51.090;-115.340;2023-07-31T01:21:30;86847.00;;;26.10
74539;BMP180;66042;51.090;-115.340;2023-07-31T01:27:31;86854.20;;;25.80
74539;BMP180;66042;51.090;-115.340;2023-07-31T01:30:16;86835.60;;;25.50
74539;BMP180;66042;51.090;-115.340;2023-07-31T01:32:48;86816.80;;;25.20
74539;BMP180;66042;51.090;-115.340;2023-07-31T01:35:15;86813.80;;;25.10
74539;BMP180;66042;51.090;-115.340;2023-07-31T01:37:42;86800.40;;;25.00
74539;BMP180;66042;51.090;-115.340;2023-07-31T01:40:09;86794.80;;;24.90
74539;BMP180;66042;51.090;-115.340;2023-07-31T01:42:36;86791.20;;;24.84
74539;BMP180;66042;51.090;-115.340;2023-07-31T01:45:04;86778.00;;;24.80
74539;BMP180;66042;51.090;-115.340;2023-07-31T01:47:31;86777.40;;;24.80
74539;BMP180;66042;51.090;-115.340;2023-07-31T01:49:58;86771.80;;;24.72
74539;BMP180;66042;51.090;-115.340;2023-07-31T01:52:25;86772.00;;;24.62
74539;BMP180;66042;51.090;-115.340;2023-07-31T01:54:52;86771.00;;;24.58
74539;BMP180;66042;51.090;-115.340;2023-07-31T01:57:19;86770.40;;;24.50
74539;BMP180;66042;51.090;-115.340;2023-07-31T01:59:46;86772.80;;;24.40
74539;BMP180;66042;51.090;-115.340;2023-07-31T02:02:13;86771.80;;;24.20
74539;BMP180;66042;51.090;-115.340;2023-07-31T02:04:40;86775.80;;;24.10
74539;BMP180;66042;51.090;-115.340;2023-07-31T02:07:07;86777.00;;;23.90
74539;BMP180;66042;51.090;-115.340;2023-07-31T02:09:34;86786.00;;;23.80
74539;BMP180;66042;51.090;-115.340;2023-07-31T02:12:02;86789.40;;;23.70
74539;BMP180;66042;51.090;-115.340;2023-07-31T02:14:30;86795.20;;;23.60
74539;BMP180;66042;51.090;-115.340;2023-07-31T02:16:57;86801.00;;;23.50
74539;BMP180;66042;51.090;-115.340;2023-07-31T02:19:24;86797.20;;;23.40
74539;BMP180;66042;51.090;-115.340;2023-07-31T02:21:54;86785.00;;;23.38
74539;BMP180;66042;51.090;-115.340;2023-07-31T02:24:21;86770.20;;;23.30
74539;BMP180;66042;51.090;-115.340;2023-07-31T02:26:48;86761.40;;;23.20
74539;BMP180;66042;51.090;-115.340;2023-07-31T02:29:15;86773.20;;;23.10
74539;BMP180;66042;51.090;-115.340;2023-07-31T02:31:42;86783.60;;;22.98
74539;BMP180;66042;51.090;-115.340;2023-07-31T02:34:10;86788.60;;;22.86
74539;BMP180;66042;51.090;-115.340;2023-07-31T02:36:36;86794.20;;;22.80
74539;BMP180;66042;51.090;-115.340;2023-07-31T02:39:03;86795.00;;;22.74
74539;BMP180;66042;51.090;-115.340;2023-07-31T02:41:31;86802.40;;;22.60
74539;BMP180;66042;51.090;-115.340;2023-07-31T02:43:57;86807.80;;;22.58
74539;BMP180;66042;51.090;-115.340;2023-07-31T02:46:26;86803.80;;;22.50
74539;BMP180;66042;51.090;-115.340;2023-07-31T02:48:53;86809.20;;;22.40
74539;BMP180;66042;51.090;-115.340;2023-07-31T02:51:20;86814.60;;;22.40
74539;BMP180;66042;51.090;-115.340;2023-07-31T02:53:48;86819.60;;;22.30
74539;BMP180;66042;51.090;-115.340;2023-07-31T02:56:15;86821.60;;;22.10
74539;BMP180;66042;51.090;-115.340;2023-07-31T02:58:42;86824.80;;;22.00
74539;BMP180;66042;51.090;-115.340;2023-07-31T03:01:10;86825.20;;;21.84
74539;BMP180;66042;51.090;-115.340;2023-07-31T03:03:37;86818.80;;;21.70
74539;BMP180;66042;51.090;-115.340;2023-07-31T03:06:05;86826.80;;;21.60
74539;BMP180;66042;51.090;-115.340;2023-07-31T03:08:32;86839.60;;;21.50
74539;BMP180;66042;51.090;-115.340;2023-07-31T03:10:59;86848.80;;;21.40
74539;BMP180;66042;51.090;-115.340;2023-07-31T03:13:25;86853.00;;;21.30
74539;BMP180;66042;51.090;-115.340;2023-07-31T03:15:52;86856.00;;;21.20
74539;BMP180;66042;51.090;-115.340;2023-07-31T03:18:19;86846.40;;;21.20
74539;BMP180;66042;51.090;-115.340;2023-07-31T03:20:46;86846.20;;;21.10
74539;BMP180;66042;51.090;-115.340;2023-07-31T03:23:13;86844.80;;;21.00
74539;BMP180;66042;51.090;-115.340;2023-07-31T03:25:58;86850.00;;;20.80
74539;BMP180;66042;51.090;-115.340;2023-07-31T03:28:26;86872.20;;;20.70
74539;BMP180;66042;51.090;-115.340;2023-07-31T03:30:53;86883.20;;;20.42
74539;BMP180;66042;51.090;-115.340;2023-07-31T03:33:20;86880.00;;;20.40
74539;BMP180;66042;51.090;-115.340;2023-07-31T03:35:48;86882.20;;;20.30
74539;BMP180;66042;51.090;-115.340;2023-07-31T03:38:15;86887.80;;;20.30
74539;BMP180;66042;51.090;-115.340;2023-07-31T03:40:41;86888.80;;;20.20
74539;BMP180;66042;51.090;-115.340;2023-07-31T03:43:08;86885.60;;;20.12
74539;BMP180;66042;51.090;-115.340;2023-07-31T03:45:36;86865.80;;;20.10
74539;BMP180;66042;51.090;-115.340;2023-07-31T03:48:04;86867.80;;;20.10
74539;BMP180;66042;51.090;-115.340;2023-07-31T03:50:33;86891.40;;;20.00
74539;BMP180;66042;51.090;-115.340;2023-07-31T03:53:01;86900.20;;;19.90
74539;BMP180;66042;51.090;-115.340;2023-07-31T03:55:29;86904.20;;;19.80
74539;BMP180;66042;51.090;-115.340;2023-07-31T03:57:56;86889.80;;;19.80
74539;BMP180;66042;51.090;-115.340;2023-07-31T04:00:24;86944.80;;;19.70
74539;BMP180;66042;51.090;-115.340;2023-07-31T04:02:51;86936.80;;;19.50
74539;BMP180;66042;51.090;-115.340;2023-07-31T04:05:17;86883.00;;;19.50
74539;BMP180;66042;51.090;-115.340;2023-07-31T04:07:46;86890.00;;;19.40
74539;BMP180;66042;51.090;-115.340;2023-07-31T04:10:14;86896.60;;;19.40
74539;BMP180;66042;51.090;-115.340;2023-07-31T04:12:41;86865.20;;;19.34
74539;BMP180;66042;51.090;-115.340;2023-07-31T04:15:08;86816.00;;;19.30
74539;BMP180;66042;51.090;-115.340;2023-07-31T04:17:35;86804.00;;;19.30
74539;BMP180;66042;51.090;-115.340;2023-07-31T04:20:02;86828.80;;;19.30
74539;BMP180;66042;51.090;-115.340;2023-07-31T04:22:29;86839.40;;;19.30
74539;BMP180;66042;51.090;-115.340;2023-07-31T04:24:56;86847.00;;;19.30
74539;BMP180;66042;51.090;-115.340;2023-07-31T04:27:24;86847.40;;;19.20
74539;BMP180;66042;51.090;-115.340;2023-07-31T04:29:51;86853.40;;;19.10
74539;BMP180;66042;51.090;-115.340;2023-07-31T04:32:19;86855.00;;;19.10
74539;BMP180;66042;51.090;-115.340;2023-07-31T04:34:53;86857.60;;;19.10
74539;BMP180;66042;51.090;-115.340;2023-07-31T04:37:20;86859.00;;;19.06
74539;BMP180;66042;51.090;-115.340;2023-07-31T04:39:47;86863.80;;;19.00
74539;BMP180;66042;51.090;-115.340;2023-07-31T04:42:14;86862.20;;;18.90
74539;BMP180;66042;51.090;-115.340;2023-07-31T04:44:41;86859.80;;;18.90
74539;BMP180;66042;51.090;-115.340;2023-07-31T04:47:08;86858.40;;;18.80
74539;BMP180;66042;51.090;-115.340;2023-07-31T04:49:36;86855.80;;;18.78
74539;BMP180;66042;51.090;-115.340;2023-07-31T04:52:04;86856.00;;;18.70
74539;BMP180;66042;51.090;-115.340;2023-07-31T04:54:31;86858.60;;;18.60
74539;BMP180;66042;51.090;-115.340;2023-07-31T04:56:58;86865.20;;;18.52
74539;BMP180;66042;51.090;-115.340;2023-07-31T04:59:26;86869.00;;;18.40
74539;BMP180;66042;51.090;-115.340;2023-07-31T05:01:53;86868.60;;;18.40
74539;BMP180;66042;51.090;-115.340;2023-07-31T05:04:20;86871.80;;;18.30
74539;BMP180;66042;51.090;-115.340;2023-07-31T05:06:47;86866.20;;;18.20
74539;BMP180;66042;51.090;-115.340;2023-07-31T05:09:14;86867.40;;;18.10
74539;BMP180;66042;51.090;-115.340;2023-07-31T05:11:40;86858.80;;;18.10
74539;BMP180;66042;51.090;-115.340;2023-07-31T05:14:09;86861.00;;;18.10
74539;BMP180;66042;51.090;-115.340;2023-07-31T05:16:37;86860.20;;;18.00
74539;BMP180;66042;51.090;-115.340;2023-07-31T05:19:03;86866.80;;;18.00
74539;BMP180;66042;51.090;-115.340;2023-07-31T05:21:30;86871.40;;;17.98
74539;BMP180;66042;51.090;-115.340;2023-07-31T05:23:57;86874.20;;;17.90
74539;BMP180;66042;51.090;-115.340;2023-07-31T05:26:24;86881.00;;;17.84
74539;BMP180;66042;51.090;-115.340;2023-07-31T05:28:51;86879.40;;;17.80
74539;BMP180;66042;51.090;-115.340;2023-07-31T05:31:18;86878.60;;;17.80
74539;BMP180;66042;51.090;-115.340;2023-07-31T05:33:45;86877.40;;;17.70
74539;BMP180;66042;51.090;-115.340;2023-07-31T05:36:12;86874.40;;;17.60
74539;BMP180;66042;51.090;-115.340;2023-07-31T05:38:39;86879.80;;;17.50
74539;BMP180;66042;51.090;-115.340;2023-07-31T05:41:06;86881.80;;;17.50
74539;BMP180;66042;51.090;-115.340;2023-07-31T05:43:32;86885.20;;;17.40
74539;BMP180;66042;51.090;-115.340;2023-07-31T05:46:00;86889.20;;;17.32
74539;BMP180;66042;51.090;-115.340;2023-07-31T05:48:27;86887.40;;;17.30
74539;BMP180;66042;51.090;-115.340;2023-07-31T05:50:54;86889.60;;;17.20
74539;BMP180;66042;51.090;-115.340;2023-07-31T05:53:21;86890.80;;;17.20
74539;BMP180;66042;51.090;-115.340;2023-07-31T05:55:48;86888.80;;;17.10
74539;BMP180;66042;51.090;-115.340;2023-07-31T05:58:15;86892.40;;;17.06
74539;BMP180;66042;51.090;-115.340;2023-07-31T06:00:43;86893.60;;;16.90
74539;BMP180;66042;51.090;-115.340;2023-07-31T06:03:10;86886.60;;;16.80
74539;BMP180;66042;51.090;-115.340;2023-07-31T06:05:37;86888.40;;;16.74
74539;BMP180;66042;51.090;-115.340;2023-07-31T06:08:04;86886.00;;;16.70
74539;BMP180;66042;51.090;-115.340;2023-07-31T06:10:31;86885.20;;;16.60
74539;BMP180;66042;51.090;-115.340;2023-07-31T06:12:58;86890.40;;;16.60
74539;BMP180;66042;51.090;-115.340;2023-07-31T06:15:25;86889.80;;;16.50
74539;BMP180;66042;51.090;-115.340;2023-07-31T06:17:52;86886.40;;;16.42
74539;BMP180;66042;51.090;-115.340;2023-07-31T06:20:19;86886.60;;;16.40
74539;BMP180;66042;51.090;-115.340;2023-07-31T06:22:46;86886.20;;;16.30
74539;BMP180;66042;51.090;-115.340;2023-07-31T06:25:12;86884.60;;;16.30
74539;BMP180;66042;51.090;-115.340;2023-07-31T06:27:39;86880.60;;;16.20
74539;BMP180;66042;51.090;-115.340;2023-07-31T06:30:10;86876.00;;;16.12
74539;BMP180;66042;51.090;-115.340;2023-07-31T06:32:40;86872.40;;;16.00
74539;BMP180;66042;51.090;-115.340;2023-07-31T06:35:07;86878.80;;;16.00
74539;BMP180;66042;51.090;-115.340;2023-07-31T06:37:35;86880.40;;;15.94
74539;BMP180;66042;51.090;-115.340;2023-07-31T06:40:01;86880.40;;;15.90
74539;BMP180;66042;51.090;-115.340;2023-07-31T06:42:28;86884.20;;;15.80
74539;BMP180;66042;51.090;-115.340;2023-07-31T06:44:55;86884.60;;;15.70
74539;BMP180;66042;51.090;-115.340;2023-07-31T06:47:23;86884.00;;;15.60
74539;BMP180;66042;51.090;-115.340;2023-07-31T06:49:49;86882.20;;;15.60
74539;BMP180;66042;51.090;-115.340;2023-07-31T06:52:16;86880.80;;;15.60
74539;BMP180;66042;51.090;-115.340;2023-07-31T06:54:43;86877.80;;;15.50
74539;BMP180;66042;51.090;-115.340;2023-07-31T06:57:10;86880.00;;;15.50
74539;BMP180;66042;51.090;-115.340;2023-07-31T06:59:37;86884.60;;;15.40
74539;BMP180;66042;51.090;-115.340;2023-07-31T07:02:05;86888.60;;;15.40
74539;BMP180;66042;51.090;-115.340;2023-07-31T07:04:32;86890.60;;;15.30
74539;BMP180;66042;51.090;-115.340;2023-07-31T07:06:59;86892.00;;;15.20
74539;BMP180;66042;51.090;-115.340;2023-07-31T07:09:26;86891.40;;;15.10
74539;BMP180;66042;51.090;-115.340;2023-07-31T07:11:52;86894.20;;;15.10
74539;BMP180;66042;51.090;-115.340;2023-07-31T07:14:19;86890.00;;;15.00
74539;BMP180;66042;51.090;-115.340;2023-07-31T07:16:51;86890.00;;;14.92
74539;BMP180;66042;51.090;-115.340;2023-07-31T07:19:18;86888.40;;;14.90
74539;BMP180;66042;51.090;-115.340;2023-07-31T07:21:45;86890.40;;;14.90
74539;BMP180;66042;51.090;-115.340;2023-07-31T07:24:12;86891.60;;;14.90
74539;BMP180;66042;51.090;-115.340;2023-07-31T07:26:40;86892.80;;;14.88
74539;BMP180;66042;51.090;-115.340;2023-07-31T07:29:06;86892.00;;;14.80
74539;BMP180;66042;51.090;-115.340;2023-07-31T07:31:34;86885.20;;;14.70
74539;BMP180;66042;51.090;-115.340;2023-07-31T07:34:03;86886.00;;;14.60
74539;BMP180;66042;51.090;-115.340;2023-07-31T07:36:30;86886.80;;;14.60
74539;BMP180;66042;51.090;-115.340;2023-07-31T07:38:58;86887.60;;;14.60
74539;BMP180;66042;51.090;-115.340;2023-07-31T07:41:26;86892.40;;;14.50
74539;BMP180;66042;51.090;-115.340;2023-07-31T07:43:52;86891.20;;;14.50
74539;BMP180;66042;51.090;-115.340;2023-07-31T07:46:19;86890.60;;;14.50
74539;BMP180;66042;51.090;-115.340;2023-07-31T07:48:46;86893.20;;;14.50
74539;BMP180;66042;51.090;-115.340;2023-07-31T07:51:13;86887.60;;;14.40
74539;BMP180;66042;51.090;-115.340;2023-07-31T07:53:40;86888.60;;;14.40
74539;BMP180;66042;51.090;-115.340;2023-07-31T07:56:07;86892.60;;;14.36
74539;BMP180;66042;51.090;-115.340;2023-07-31T07:58:34;86894.40;;;14.34
74539;BMP180;66042;51.090;-115.340;2023-07-31T08:01:01;86897.60;;;14.30
74539;BMP180;66042;51.090;-115.340;2023-07-31T08:03:28;86900.60;;;14.30
74539;BMP180;66042;51.090;-115.340;2023-07-31T08:06:01;86903.00;;;14.30
74539;BMP180;66042;51.090;-115.340;2023-07-31T08:08:29;86909.20;;;14.30
74539;BMP180;66042;51.090;-115.340;2023-07-31T08:10:55;86906.40;;;14.30
74539;BMP180;66042;51.090;-115.340;2023-07-31T08:13:22;86909.40;;;14.20
74539;BMP180;66042;51.090;-115.340;2023-07-31T08:15:50;86909.80;;;14.20
74539;BMP180;66042;51.090;-115.340;2023-07-31T08:18:16;86909.40;;;14.20
74539;BMP180;66042;51.090;-115.340;2023-07-31T08:20:43;86904.00;;;14.14
74539;BMP180;66042;51.090;-115.340;2023-07-31T08:23:10;86905.60;;;14.16
74539;BMP180;66042;51.090;-115.340;2023-07-31T08:25:37;86907.60;;;14.18
74539;BMP180;66042;51.090;-115.340;2023-07-31T08:28:05;86911.00;;;14.10
74539;BMP180;66042;51.090;-115.340;2023-07-31T08:30:33;86909.20;;;14.00
74539;BMP180;66042;51.090;-115.340;2023-07-31T08:33:00;86906.40;;;14.00
74539;BMP180;66042;51.090;-115.340;2023-07-31T08:35:27;86911.40;;;14.00
74539;BMP180;66042;51.090;-115.340;2023-07-31T08:37:55;86912.00;;;14.00
74539;BMP180;66042;51.090;-115.340;2023-07-31T08:40:22;86909.40;;;13.90
74539;BMP180;66042;51.090;-115.340;2023-07-31T08:42:52;86914.20;;;13.90
74539;BMP180;66042;51.090;-115.340;2023-07-31T08:45:20;86917.00;;;13.90
74539;BMP180;66042;51.090;-115.340;2023-07-31T08:47:50;86915.80;;;13.90
74539;BMP180;66042;51.090;-115.340;2023-07-31T08:50:20;86912.00;;;13.84
74539;BMP180;66042;51.090;-115.340;2023-07-31T08:52:50;86914.80;;;13.80
74539;BMP180;66042;51.090;-115.340;2023-07-31T08:55:18;86917.40;;;13.80
74539;BMP180;66042;51.090;-115.340;2023-07-31T08:57:52;86919.00;;;13.80
74539;BMP180;66042;51.090;-115.340;2023-07-31T09:00:23;86918.20;;;13.80
74539;BMP180;66042;51.090;-115.340;2023-07-31T09:03:07;86919.60;;;13.78
74539;BMP180;66042;51.090;-115.340;2023-07-31T09:05:39;86923.40;;;13.80
74539;BMP180;66042;51.090;-115.340;2023-07-31T09:08:11;86919.80;;;13.70
74539;BMP180;66042;51.090;-115.340;2023-07-31T09:10:46;86927.40;;;13.70
74539;BMP180;66042;51.090;-115.340;2023-07-31T09:13:14;86926.40;;;13.70
74539;BMP180;66042;51.090;-115.340;2023-07-31T09:15:45;86929.40;;;13.68
74539;BMP180;66042;51.090;-115.340;2023-07-31T09:18:12;86935.40;;;13.66
74539;BMP180;66042;51.090;-115.340;2023-07-31T09:20:43;86939.00;;;13.62
74539;BMP180;66042;51.090;-115.340;2023-07-31T09:23:14;86935.00;;;13.60
74539;BMP180;66042;51.090;-115.340;2023-07-31T09:25:46;86931.00;;;13.60
74539;BMP180;66042;51.090;-115.340;2023-07-31T09:28:13;86926.60;;;13.60
74539;BMP180;66042;51.090;-115.340;2023-07-31T09:30:50;86925.40;;;13.60
74539;BMP180;66042;51.090;-115.340;2023-07-31T09:33:19;86935.80;;;13.60
74539;BMP180;66042;51.090;-115.340;2023-07-31T09:35:47;86932.60;;;13.52
74539;BMP180;66042;51.090;-115.340;2023-07-31T09:38:15;86935.40;;;13.52
74539;BMP180;66042;51.090;-115.340;2023-07-31T09:40:48;86933.20;;;13.50
74539;BMP180;66042;51.090;-115.340;2023-07-31T09:43:21;86932.60;;;13.50
74539;BMP180;66042;51.090;-115.340;2023-07-31T09:45:48;86929.00;;;13.50
74539;BMP180;66042;51.090;-115.340;2023-07-31T09:48:21;86925.60;;;13.44
74539;BMP180;66042;51.090;-115.340;2023-07-31T09:50:52;86923.20;;;13.40
74539;BMP180;66042;51.090;-115.340;2023-07-31T09:53:19;86927.80;;;13.40
74539;BMP180;66042;51.090;-115.340;2023-07-31T09:55:46;86928.60;;;13.40
74539;BMP180;66042;51.090;-115.340;2023-07-31T09:58:13;86931.00;;;13.40
74539;BMP180;66042;51.090;-115.340;2023-07-31T10:00:41;86929.20;;;13.30
74539;BMP180;66042;51.090;-115.340;2023-07-31T10:03:10;86925.40;;;13.30
74539;BMP180;66042;51.090;-115.340;2023-07-31T10:05:43;86926.40;;;13.20
74539;BMP180;66042;51.090;-115.340;2023-07-31T10:08:16;86928.20;;;13.20
74539;BMP180;66042;51.090;-115.340;2023-07-31T10:10:46;86932.20;;;13.20
74539;BMP180;66042;51.090;-115.340;2023-07-31T10:13:14;86933.40;;;13.10
74539;BMP180;66042;51.090;-115.340;2023-07-31T10:15:41;86935.00;;;13.10
74539;BMP180;66042;51.090;-115.340;2023-07-31T10:18:09;86934.20;;;13.10
74539;BMP180;66042;51.090;-115.340;2023-07-31T10:20:37;86936.60;;;13.10
74539;BMP180;66042;51.090;-115.340;2023-07-31T10:23:04;86944.80;;;13.10
74539;BMP180;66042;51.090;-115.340;2023-07-31T10:25:33;86944.80;;;13.10
74539;BMP180;66042;51.090;-115.340;2023-07-31T10:28:01;86941.20;;;13.00
74539;BMP180;66042;51.090;-115.340;2023-07-31T10:30:32;86943.00;;;13.00
74539;BMP180;66042;51.090;-115.340;2023-07-31T10:33:01;86943.00;;;12.92
74539;BMP180;66042;51.090;-115.340;2023-07-31T10:35:28;86947.60;;;12.96
74539;BMP180;66042;51.090;-115.340;2023-07-31T10:37:55;86946.60;;;13.00
74539;BMP180;66042;51.090;-115.340;2023-07-31T10:40:27;86951.20;;;13.00
74539;BMP180;66042;51.090;-115.340;2023-07-31T10:42:57;86948.40;;;13.00
74539;BMP180;66042;51.090;-115.340;2023-07-31T10:45:52;86947.60;;;12.90
74539;BMP180;66042;51.090;-115.340;2023-07-31T10:48:20;86945.00;;;12.90
74539;BMP180;66042;51.090;-115.340;2023-07-31T10:50:56;86945.40;;;12.90
74539;BMP180;66042;51.090;-115.340;2023-07-31T10:53:30;86950.00;;;12.90
74539;BMP180;66042;51.090;-115.340;2023-07-31T10:56:02;86954.00;;;12.90
74539;BMP180;66042;51.090;-115.340;2023-07-31T10:58:32;86955.00;;;12.86
74539;BMP180;66042;51.090;-115.340;2023-07-31T11:01:04;86958.80;;;12.80
74539;BMP180;66042;51.090;-115.340;2023-07-31T11:03:51;86958.00;;;12.70
74539;BMP180;66042;51.090;-115.340;2023-07-31T11:06:20;86958.40;;;12.70
74539;BMP180;66042;51.090;-115.340;2023-07-31T11:08:50;86956.60;;;12.70
74539;BMP180;66042;51.090;-115.340;2023-07-31T11:11:19;86957.00;;;12.62
74539;BMP180;66042;51.090;-115.340;2023-07-31T11:13:52;86954.60;;;12.60
74539;BMP180;66042;51.090;-115.340;2023-07-31T11:16:24;86957.40;;;12.60
74539;BMP180;66042;51.090;-115.340;2023-07-31T11:18:53;86965.80;;;12.60
74539;BMP180;66042;51.090;-115.340;2023-07-31T11:21:25;86969.60;;;12.50
74539;BMP180;66042;51.090;-115.340;2023-07-31T11:23:57;86971.00;;;12.50
74539;BMP180;66042;51.090;-115.340;2023-07-31T11:26:25;86968.00;;;12.50
74539;BMP180;66042;51.090;-115.340;2023-07-31T11:28:52;86968.80;;;12.50
74539;BMP180;66042;51.090;-115.340;2023-07-31T11:31:19;86971.60;;;12.40
74539;BMP180;66042;51.090;-115.340;2023-07-31T11:33:46;86964.40;;;12.40
74539;BMP180;66042;51.090;-115.340;2023-07-31T11:36:18;86964.00;;;12.40
74539;BMP180;66042;51.090;-115.340;2023-07-31T11:38:46;86968.60;;;12.40
74539;BMP180;66042;51.090;-115.340;2023-07-31T11:41:15;86972.00;;;12.40
74539;BMP180;66042;51.090;-115.340;2023-07-31T11:43:42;86972.40;;;12.40
74539;BMP180;66042;51.090;-115.340;2023-07-31T11:46:09;86970.20;;;12.40
74539;BMP180;66042;51.090;-115.340;2023-07-31T11:48:37;86969.80;;;12.40
74539;BMP180;66042;51.090;-115.340;2023-07-31T11:51:08;86969.20;;;12.30
74539;BMP180;66042;51.090;-115.340;2023-07-31T11:53:49;86973.00;;;12.30
74539;BMP180;66042;51.090;-115.340;2023-07-31T11:56:21;86975.80;;;12.30
74539;BMP180;66042;51.090;-115.340;2023-07-31T11:58:56;86969.40;;;12.20
74539;BMP180;66042;51.090;-115.340;2023-07-31T12:01:24;86973.00;;;12.18
74539;BMP180;66042;51.090;-115.340;2023-07-31T12:03:54;86974.20;;;12.20
74539;BMP180;66042;51.090;-115.340;2023-07-31T12:06:35;86979.60;;;12.10
74539;BMP180;66042;51.090;-115.340;2023-07-31T12:09:05;86976.40;;;12.00
74539;BMP180;66042;51.090;-115.340;2023-07-31T12:11:46;86979.60;;;12.00
74539;BMP180;66042;51.090;-115.340;2023-07-31T12:14:27;86980.80;;;12.00
74539;BMP180;66042;51.090;-115.340;2023-07-31T12:17:04;86976.80;;;11.94
74539;BMP180;66042;51.090;-115.340;2023-07-31T12:19:33;86977.20;;;11.90
74539;BMP180;66042;51.090;-115.340;2023-07-31T12:22:14;86980.20;;;11.90
74539;BMP180;66042;51.090;-115.340;2023-07-31T12:24:44;86979.80;;;12.00
74539;BMP180;66042;51.090;-115.340;2023-07-31T12:27:15;86981.00;;;11.90
74539;BMP180;66042;51.090;-115.340;2023-07-31T12:29:43;86982.80;;;11.90
74539;BMP180;66042;51.090;-115.340;2023-07-31T12:32:23;86988.80;;;11.90
74539;BMP180;66042;51.090;-115.340;2023-07-31T12:34:51;86990.20;;;11.90
74539;BMP180;66042;51.090;-115.340;2023-07-31T12:37:18;86992.00;;;11.80
74539;BMP180;66042;51.090;-115.340;2023-07-31T12:39:45;86985.40;;;11.80
74539;BMP180;66042;51.090;-115.340;2023-07-31T12:42:12;86987.40;;;11.80
74539;BMP180;66042;51.090;-115.340;2023-07-31T12:44:39;86975.80;;;11.70
74539;BMP180;66042;51.090;-115.340;2023-07-31T12:47:06;86972.80;;;11.70
74539;BMP180;66042;51.090;-115.340;2023-07-31T12:49:33;86974.60;;;11.70
74539;BMP180;66042;51.090;-115.340;2023-07-31T12:52:01;86980.00;;;11.70
74539;BMP180;66042;51.090;-115.340;2023-07-31T12:54:27;86981.80;;;11.60
74539;BMP180;66042;51.090;-115.340;2023-07-31T12:56:54;86981.80;;;11.50
74539;BMP180;66042;51.090;-115.340;2023-07-31T12:59:21;86980.20;;;11.50
74539;BMP180;66042;51.090;-115.340;2023-07-31T13:01:48;86980.20;;;11.50
74539;BMP180;66042;51.090;-115.340;2023-07-31T13:04:15;86978.80;;;11.54
74539;BMP180;66042;51.090;-115.340;2023-07-31T13:06:42;86981.40;;;11.58
74539;BMP180;66042;51.090;-115.340;2023-07-31T13:09:09;86982.80;;;11.58
74539;BMP180;66042;51.090;-115.340;2023-07-31T13:11:37;86986.40;;;11.50
74539;BMP180;66042;51.090;-115.340;2023-07-31T13:14:04;86990.00;;;11.50
74539;BMP180;66042;51.090;-115.340;2023-07-31T13:16:30;86988.00;;;11.50
74539;BMP180;66042;51.090;-115.340;2023-07-31T13:18:57;86990.00;;;11.50
74539;BMP180;66042;51.090;-115.340;2023-07-31T13:21:24;86993.60;;;11.50
74539;BMP180;66042;51.090;-115.340;2023-07-31T13:23:51;86994.40;;;11.40
74539;BMP180;66042;51.090;-115.340;2023-07-31T13:26:18;86990.20;;;11.44
74539;BMP180;66042;51.090;-115.340;2023-07-31T13:28:46;86989.80;;;11.40
74539;BMP180;66042;51.090;-115.340;2023-07-31T13:31:13;86990.20;;;11.40
74539;BMP180;66042;51.090;-115.340;2023-07-31T13:33:40;86991.40;;;11.40
74539;BMP180;66042;51.090;-115.340;2023-07-31T13:36:06;86994.60;;;11.40
74539;BMP180;66042;51.090;-115.340;2023-07-31T13:38:33;86999.00;;;11.40
74539;BMP180;66042;51.090;-115.340;2023-07-31T13:41:01;86993.20;;;11.40
74539;BMP180;66042;51.090;-115.340;2023-07-31T13:43:28;86999.80;;;11.40
74539;BMP180;66042;51.090;-115.340;2023-07-31T13:45:55;87005.20;;;11.40